sensor_id;sensor_type;location;lat;lon;timestamp;temperature;humidity
40059;SHT31;25763;49.972;8.568;2023-12-22T00:00:43;5.63;84.97
40059;SHT31;25763;49.972;8.568;2023-12-22T00:03:12;5.64;84.96
40059;SHT31;25763;49.972;8.568;2023-12-22T00:05:37;5.69;84.64
40059;SHT31;25763;49.972;8.568;2023-12-22T00:08:03;5.69;85.02
40059;SHT31;25763;49.972;8.568;2023-12-22T00:10:28;5.70;84.91
40059;SHT31;25763;49.972;8.568;2023-12-22T00:12:54;5.66;85.22
40059;SHT31;25763;49.972;8.568;2023-12-22T00:15:19;5.60;85.14
40059;SHT31;25763;49.972;8.568;2023-12-22T00:17:44;5.60;84.97
40059;SHT31;25763;49.972;8.568;2023-12-22T00:20:11;5.56;85.07
40059;SHT31;25763;49.972;8.568;2023-12-22T00:22:38;5.48;85.24
40059;SHT31;25763;49.972;8.568;2023-12-22T00:25:04;5.50;85.34
40059;SHT31;25763;49.972;8.568;2023-12-22T00:27:29;5.48;85.34
40059;SHT31;25763;49.972;8.568;2023-12-22T00:29:54;5.48;85.31
40059;SHT31;25763;49.972;8.568;2023-12-22T00:32:20;5.53;85.23
40059;SHT31;25763;49.972;8.568;2023-12-22T00:34:45;5.51;85.18
40059;SHT31;25763;49.972;8.568;2023-12-22T00:37:10;5.53;84.97
40059;SHT31;25763;49.972;8.568;2023-12-22T00:39:37;5.54;84.67
40059;SHT31;25763;49.972;8.568;2023-12-22T00:42:03;5.51;84.75
40059;SHT31;25763;49.972;8.568;2023-12-22T00:44:29;5.54;84.65
40059;SHT31;25763;49.972;8.568;2023-12-22T00:46:55;5.57;84.53
40059;SHT31;25763;49.972;8.568;2023-12-22T00:49:21;5.64;84.18
40059;SHT31;25763;49.972;8.568;2023-12-22T00:51:48;5.67;84.11
40059;SHT31;25763;49.972;8.568;2023-12-22T00:54:13;5.71;84.12
40059;SHT31;25763;49.972;8.568;2023-12-22T00:56:39;5.71;83.92
40059;SHT31;25763;49.972;8.568;2023-12-22T00:59:04;5.77;83.92
40059;SHT31;25763;49.972;8.568;2023-12-22T01:01:29;5.75;84.07
40059;SHT31;25763;49.972;8.568;2023-12-22T01:03:55;5.77;84.26
40059;SHT31;25763;49.972;8.568;2023-12-22T01:06:20;5.75;84.38
40059;SHT31;25763;49.972;8.568;2023-12-22T01:08:46;5.75;84.56
40059;SHT31;25763;49.972;8.568;2023-12-22T01:11:18;5.71;84.58
40059;SHT31;25763;49.972;8.568;2023-12-22T01:13:43;5.81;84.19
40059;SHT31;25763;49.972;8.568;2023-12-22T01:16:09;5.89;83.90
40059;SHT31;25763;49.972;8.568;2023-12-22T01:18:34;5.98;83.89
40059;SHT31;25763;49.972;8.568;2023-12-22T01:21:00;6.09;83.07
40059;SHT31;25763;49.972;8.568;2023-12-22T01:23:25;6.15;83.29
40059;SHT31;25763;49.972;8.568;2023-12-22T01:25:51;6.24;83.18
40059;SHT31;25763;49.972;8.568;2023-12-22T01:28:16;6.29;84.10
40059;SHT31;25763;49.972;8.568;2023-12-22T01:30:41;6.30;84.15
40059;SHT31;25763;49.972;8.568;2023-12-22T01:33:07;6.37;83.85
40059;SHT31;25763;49.972;8.568;2023-12-22T01:35:32;6.34;84.30
40059;SHT31;25763;49.972;8.568;2023-12-22T01:37:57;6.29;84.66
40059;SHT31;25763;49.972;8.568;2023-12-22T01:40:23;6.30;84.67
40059;SHT31;25763;49.972;8.568;2023-12-22T01:42:48;6.32;84.22
40059;SHT31;25763;49.972;8.568;2023-12-22T01:45:14;6.30;84.45
40059;SHT31;25763;49.972;8.568;2023-12-22T01:47:40;6.32;84.50
40059;SHT31;25763;49.972;8.568;2023-12-22T01:50:06;6.27;84.94
40059;SHT31;25763;49.972;8.568;2023-12-22T01:52:32;6.32;84.56
40059;SHT31;25763;49.972;8.568;2023-12-22T01:54:57;6.33;84.60
40059;SHT31;25763;49.972;8.568;2023-12-22T01:57:23;6.33;84.84
40059;SHT31;25763;49.972;8.568;2023-12-22T01:59:49;6.32;85.13
40059;SHT31;25763;49.972;8.568;2023-12-22T02:02:15;6.33;85.22
40059;SHT31;25763;49.972;8.568;2023-12-22T02:04:42;6.32;85.44
40059;SHT31;25763;49.972;8.568;2023-12-22T02:07:08;6.36;85.45
40059;SHT31;25763;49.972;8.568;2023-12-22T02:09:34;6.33;85.47
40059;SHT31;25763;49.972;8.568;2023-12-22T02:12:00;6.32;85.59
40059;SHT31;25763;49.972;8.568;2023-12-22T02:14:26;6.34;85.59
40059;SHT31;25763;49.972;8.568;2023-12-22T02:17:02;6.33;85.62
40059;SHT31;25763;49.972;8.568;2023-12-22T02:19:43;6.38;85.60
40059;SHT31;25763;49.972;8.568;2023-12-22T02:22:11;6.32;85.77
40059;SHT31;25763;49.972;8.568;2023-12-22T02:24:39;6.30;85.68
40059;SHT31;25763;49.972;8.568;2023-12-22T02:27:05;6.37;85.54
40059;SHT31;25763;49.972;8.568;2023-12-22T02:29:36;6.34;85.51
40059;SHT31;25763;49.972;8.568;2023-12-22T02:32:06;6.34;85.40
40059;SHT31;25763;49.972;8.568;2023-12-22T02:34:35;6.30;85.39
40059;SHT31;25763;49.972;8.568;2023-12-22T02:37:03;6.30;85.40
40059;SHT31;25763;49.972;8.568;2023-12-22T02:39:29;6.27;85.27
40059;SHT31;25763;49.972;8.568;2023-12-22T02:41:54;6.33;85.21
40059;SHT31;25763;49.972;8.568;2023-12-22T02:44:20;6.36;85.13
40059;SHT31;25763;49.972;8.568;2023-12-22T02:46:46;6.36;85.06
40059;SHT31;25763;49.972;8.568;2023-12-22T02:49:12;6.32;85.09
40059;SHT31;25763;49.972;8.568;2023-12-22T02:51:38;6.32;85.03
40059;SHT31;25763;49.972;8.568;2023-12-22T02:54:03;6.29;85.04
40059;SHT31;25763;49.972;8.568;2023-12-22T02:56:29;6.33;85.13
40059;SHT31;25763;49.972;8.568;2023-12-22T02:58:54;6.29;85.16
40059;SHT31;25763;49.972;8.568;2023-12-22T03:01:19;6.27;85.18
40059;SHT31;25763;49.972;8.568;2023-12-22T03:03:45;6.29;85.21
40059;SHT31;25763;49.972;8.568;2023-12-22T03:06:10;6.22;85.18
40059;SHT31;25763;49.972;8.568;2023-12-22T03:08:37;6.23;85.11
40059;SHT31;25763;49.972;8.568;2023-12-22T03:11:02;6.20;85.20
40059;SHT31;25763;49.972;8.568;2023-12-22T03:13:27;6.20;85.16
40059;SHT31;25763;49.972;8.568;2023-12-22T03:15:53;6.23;85.30
40059;SHT31;25763;49.972;8.568;2023-12-22T03:18:18;6.17;85.36
40059;SHT31;25763;49.972;8.568;2023-12-22T03:20:43;6.10;85.44
40059;SHT31;25763;49.972;8.568;2023-12-22T03:23:09;6.07;85.49
40059;SHT31;25763;49.972;8.568;2023-12-22T03:25:34;6.03;85.42
40059;SHT31;25763;49.972;8.568;2023-12-22T03:28:01;6.06;85.65
40059;SHT31;25763;49.972;8.568;2023-12-22T03:30:27;6.03;85.57
40059;SHT31;25763;49.972;8.568;2023-12-22T03:32:52;6.05;85.46
40059;SHT31;25763;49.972;8.568;2023-12-22T03:35:18;6.07;85.62
40059;SHT31;25763;49.972;8.568;2023-12-22T03:37:43;6.07;85.57
40059;SHT31;25763;49.972;8.568;2023-12-22T03:40:08;6.07;85.64
40059;SHT31;25763;49.972;8.568;2023-12-22T03:42:34;6.07;85.83
40059;SHT31;25763;49.972;8.568;2023-12-22T03:45:00;6.06;85.83
40059;SHT31;25763;49.972;8.568;2023-12-22T03:47:25;6.09;85.90
40059;SHT31;25763;49.972;8.568;2023-12-22T03:49:50;6.09;86.03
40059;SHT31;25763;49.972;8.568;2023-12-22T03:52:16;6.07;85.97
40059;SHT31;25763;49.972;8.568;2023-12-22T03:54:41;6.10;85.88
40059;SHT31;25763;49.972;8.568;2023-12-22T03:57:06;6.10;85.98
40059;SHT31;25763;49.972;8.568;2023-12-22T03:59:32;6.12;86.02
40059;SHT31;25763;49.972;8.568;2023-12-22T04:01:57;6.13;85.92
40059;SHT31;25763;49.972;8.568;2023-12-22T04:04:26;6.19;85.71
40059;SHT31;25763;49.972;8.568;2023-12-22T04:06:53;6.19;85.71
40059;SHT31;25763;49.972;8.568;2023-12-22T04:09:19;6.19;85.59
40059;SHT31;25763;49.972;8.568;2023-12-22T04:11:44;6.22;85.51
40059;SHT31;25763;49.972;8.568;2023-12-22T04:14:10;6.17;85.46
40059;SHT31;25763;49.972;8.568;2023-12-22T04:16:39;6.16;85.37
40059;SHT31;25763;49.972;8.568;2023-12-22T04:19:04;6.16;85.28
40059;SHT31;25763;49.972;8.568;2023-12-22T04:21:30;6.22;85.25
40059;SHT31;25763;49.972;8.568;2023-12-22T04:23:55;6.22;85.04
40059;SHT31;25763;49.972;8.568;2023-12-22T04:26:20;6.27;84.65
40059;SHT31;25763;49.972;8.568;2023-12-22T04:28:46;6.26;84.59
40059;SHT31;25763;49.972;8.568;2023-12-22T04:31:11;6.27;84.53
40059;SHT31;25763;49.972;8.568;2023-12-22T04:33:37;6.30;84.12
40059;SHT31;25763;49.972;8.568;2023-12-22T04:36:02;6.40;83.40
40059;SHT31;25763;49.972;8.568;2023-12-22T04:38:28;6.45;83.14
40059;SHT31;25763;49.972;8.568;2023-12-22T04:40:53;6.52;82.73
40059;SHT31;25763;49.972;8.568;2023-12-22T04:43:19;6.52;82.74
40059;SHT31;25763;49.972;8.568;2023-12-22T04:45:44;6.63;82.32
40059;SHT31;25763;49.972;8.568;2023-12-22T04:48:09;6.68;82.27
40059;SHT31;25763;49.972;8.568;2023-12-22T04:50:35;6.68;82.31
40059;SHT31;25763;49.972;8.568;2023-12-22T04:53:02;6.69;81.76
40059;SHT31;25763;49.972;8.568;2023-12-22T04:55:27;6.74;81.88
40059;SHT31;25763;49.972;8.568;2023-12-22T04:57:52;6.79;81.41
40059;SHT31;25763;49.972;8.568;2023-12-22T05:00:18;6.81;81.25
40059;SHT31;25763;49.972;8.568;2023-12-22T05:02:43;6.85;81.10
40059;SHT31;25763;49.972;8.568;2023-12-22T05:05:10;6.85;81.30
40059;SHT31;25763;49.972;8.568;2023-12-22T05:07:37;6.88;81.01
40059;SHT31;25763;49.972;8.568;2023-12-22T05:10:02;6.83;81.40
40059;SHT31;25763;49.972;8.568;2023-12-22T05:12:28;6.85;80.95
40059;SHT31;25763;49.972;8.568;2023-12-22T05:14:53;6.86;81.11
40059;SHT31;25763;49.972;8.568;2023-12-22T05:17:19;6.89;81.17
40059;SHT31;25763;49.972;8.568;2023-12-22T05:19:45;6.89;81.15
40059;SHT31;25763;49.972;8.568;2023-12-22T05:22:10;6.85;81.44
40059;SHT31;25763;49.972;8.568;2023-12-22T05:24:37;6.82;81.61
40059;SHT31;25763;49.972;8.568;2023-12-22T05:27:02;6.83;80.78
40059;SHT31;25763;49.972;8.568;2023-12-22T05:29:28;6.79;81.28
40059;SHT31;25763;49.972;8.568;2023-12-22T05:31:53;6.75;81.44
40059;SHT31;25763;49.972;8.568;2023-12-22T05:34:18;6.74;81.49
40059;SHT31;25763;49.972;8.568;2023-12-22T05:36:44;6.76;81.61
40059;SHT31;25763;49.972;8.568;2023-12-22T05:39:10;6.74;81.80
40059;SHT31;25763;49.972;8.568;2023-12-22T05:41:35;6.76;81.83
40059;SHT31;25763;49.972;8.568;2023-12-22T05:44:06;6.68;81.93
40059;SHT31;25763;49.972;8.568;2023-12-22T05:46:36;6.61;82.04
40059;SHT31;25763;49.972;8.568;2023-12-22T05:49:02;6.59;82.12
40059;SHT31;25763;49.972;8.568;2023-12-22T05:51:27;6.64;82.02
40059;SHT31;25763;49.972;8.568;2023-12-22T05:53:52;6.67;82.04
40059;SHT31;25763;49.972;8.568;2023-12-22T05:56:21;6.69;82.06
40059;SHT31;25763;49.972;8.568;2023-12-22T05:58:47;6.68;82.12
40059;SHT31;25763;49.972;8.568;2023-12-22T06:01:18;6.72;82.22
40059;SHT31;25763;49.972;8.568;2023-12-22T06:03:47;6.69;82.29
40059;SHT31;25763;49.972;8.568;2023-12-22T06:06:13;6.71;82.17
40059;SHT31;25763;49.972;8.568;2023-12-22T06:08:38;6.72;82.28
40059;SHT31;25763;49.972;8.568;2023-12-22T06:11:04;6.71;82.26
40059;SHT31;25763;49.972;8.568;2023-12-22T06:13:31;6.71;82.27
40059;SHT31;25763;49.972;8.568;2023-12-22T06:15:56;6.72;81.99
40059;SHT31;25763;49.972;8.568;2023-12-22T06:18:22;6.75;82.13
40059;SHT31;25763;49.972;8.568;2023-12-22T06:20:47;6.75;82.17
40059;SHT31;25763;49.972;8.568;2023-12-22T06:23:13;6.81;82.12
40059;SHT31;25763;49.972;8.568;2023-12-22T06:25:38;6.81;81.68
40059;SHT31;25763;49.972;8.568;2023-12-22T06:28:04;6.82;81.77
40059;SHT31;25763;49.972;8.568;2023-12-22T06:30:29;6.79;81.86
40059;SHT31;25763;49.972;8.568;2023-12-22T06:32:55;6.76;82.19
40059;SHT31;25763;49.972;8.568;2023-12-22T06:35:21;6.76;82.40
40059;SHT31;25763;49.972;8.568;2023-12-22T06:37:49;6.79;82.45
40059;SHT31;25763;49.972;8.568;2023-12-22T06:40:15;6.74;82.60
40059;SHT31;25763;49.972;8.568;2023-12-22T06:42:40;6.68;82.81
40059;SHT31;25763;49.972;8.568;2023-12-22T06:45:06;6.61;83.07
40059;SHT31;25763;49.972;8.568;2023-12-22T06:47:31;6.61;83.06
40059;SHT31;25763;49.972;8.568;2023-12-22T06:49:57;6.55;83.18
40059;SHT31;25763;49.972;8.568;2023-12-22T06:52:22;6.55;83.23
40059;SHT31;25763;49.972;8.568;2023-12-22T06:54:47;6.57;83.24
40059;SHT31;25763;49.972;8.568;2023-12-22T06:57:13;6.57;83.24
40059;SHT31;25763;49.972;8.568;2023-12-22T06:59:39;6.55;83.31
40059;SHT31;25763;49.972;8.568;2023-12-22T07:02:04;6.52;83.29
40059;SHT31;25763;49.972;8.568;2023-12-22T07:04:29;6.58;83.17
40059;SHT31;25763;49.972;8.568;2023-12-22T07:06:55;6.58;83.11
40059;SHT31;25763;49.972;8.568;2023-12-22T07:11:49;6.63;83.08
40059;SHT31;25763;49.972;8.568;2023-12-22T07:14:15;6.63;83.11
40059;SHT31;25763;49.972;8.568;2023-12-22T07:16:41;6.63;83.11
40059;SHT31;25763;49.972;8.568;2023-12-22T07:19:07;6.65;83.11
40059;SHT31;25763;49.972;8.568;2023-12-22T07:21:33;6.67;83.14
40059;SHT31;25763;49.972;8.568;2023-12-22T07:23:59;6.68;83.17
40059;SHT31;25763;49.972;8.568;2023-12-22T07:26:24;6.69;83.17
40059;SHT31;25763;49.972;8.568;2023-12-22T07:28:52;6.74;83.18
40059;SHT31;25763;49.972;8.568;2023-12-22T07:31:17;6.75;83.14
40059;SHT31;25763;49.972;8.568;2023-12-22T07:33:43;6.74;83.19
40059;SHT31;25763;49.972;8.568;2023-12-22T07:36:09;6.76;83.23
40059;SHT31;25763;49.972;8.568;2023-12-22T07:38:34;6.76;83.16
40059;SHT31;25763;49.972;8.568;2023-12-22T07:41:00;6.82;83.15
40059;SHT31;25763;49.972;8.568;2023-12-22T07:43:26;6.82;83.16
40059;SHT31;25763;49.972;8.568;2023-12-22T07:45:51;6.85;83.18
40059;SHT31;25763;49.972;8.568;2023-12-22T07:48:19;6.83;83.19
40059;SHT31;25763;49.972;8.568;2023-12-22T07:50:45;6.85;83.15
40059;SHT31;25763;49.972;8.568;2023-12-22T07:53:11;6.89;83.00
40059;SHT31;25763;49.972;8.568;2023-12-22T07:55:36;6.95;83.00
40059;SHT31;25763;49.972;8.568;2023-12-22T07:58:06;6.93;82.98
40059;SHT31;25763;49.972;8.568;2023-12-22T08:00:32;6.97;82.99
40059;SHT31;25763;49.972;8.568;2023-12-22T08:02:58;6.92;83.06
40059;SHT31;25763;49.972;8.568;2023-12-22T08:05:23;6.93;83.13
40059;SHT31;25763;49.972;8.568;2023-12-22T08:07:49;6.92;83.23
40059;SHT31;25763;49.972;8.568;2023-12-22T08:10:14;6.96;83.28
40059;SHT31;25763;49.972;8.568;2023-12-22T08:12:41;7.01;82.84
40059;SHT31;25763;49.972;8.568;2023-12-22T08:15:07;7.07;82.24
40059;SHT31;25763;49.972;8.568;2023-12-22T08:17:32;7.17;81.50
40059;SHT31;25763;49.972;8.568;2023-12-22T08:19:58;7.28;80.92
40059;SHT31;25763;49.972;8.568;2023-12-22T08:22:24;7.36;80.37
40059;SHT31;25763;49.972;8.568;2023-12-22T08:24:49;7.44;80.08
40059;SHT31;25763;49.972;8.568;2023-12-22T08:27:14;7.58;78.85
40059;SHT31;25763;49.972;8.568;2023-12-22T08:29:40;7.62;78.96
40059;SHT31;25763;49.972;8.568;2023-12-22T08:32:05;7.73;78.27
40059;SHT31;25763;49.972;8.568;2023-12-22T08:34:31;7.70;78.49
40059;SHT31;25763;49.972;8.568;2023-12-22T08:36:56;7.67;78.66
40059;SHT31;25763;49.972;8.568;2023-12-22T08:39:22;7.63;79.33
40059;SHT31;25763;49.972;8.568;2023-12-22T08:41:49;7.60;80.18
40059;SHT31;25763;49.972;8.568;2023-12-22T08:44:15;7.53;79.90
40059;SHT31;25763;49.972;8.568;2023-12-22T08:46:40;7.49;80.28
40059;SHT31;25763;49.972;8.568;2023-12-22T08:49:05;7.41;80.89
40059;SHT31;25763;49.972;8.568;2023-12-22T08:51:31;7.36;81.83
40059;SHT31;25763;49.972;8.568;2023-12-22T08:53:58;7.35;82.34
40059;SHT31;25763;49.972;8.568;2023-12-22T08:56:23;7.35;82.74
40059;SHT31;25763;49.972;8.568;2023-12-22T08:58:51;7.30;83.20
40059;SHT31;25763;49.972;8.568;2023-12-22T09:01:17;7.26;83.67
40059;SHT31;25763;49.972;8.568;2023-12-22T09:03:43;7.18;84.12
40059;SHT31;25763;49.972;8.568;2023-12-22T09:06:14;7.14;84.58
40059;SHT31;25763;49.972;8.568;2023-12-22T09:08:40;7.09;84.83
40059;SHT31;25763;49.972;8.568;2023-12-22T09:11:05;7.03;85.14
40059;SHT31;25763;49.972;8.568;2023-12-22T09:13:30;7.04;85.26
40059;SHT31;25763;49.972;8.568;2023-12-22T09:15:59;7.04;85.42
40059;SHT31;25763;49.972;8.568;2023-12-22T09:18:24;6.96;85.88
40059;SHT31;25763;49.972;8.568;2023-12-22T09:20:49;6.96;86.04
40059;SHT31;25763;49.972;8.568;2023-12-22T09:23:15;6.99;86.07
40059;SHT31;25763;49.972;8.568;2023-12-22T09:25:40;6.97;86.22
40059;SHT31;25763;49.972;8.568;2023-12-22T09:28:05;7.04;86.31
40059;SHT31;25763;49.972;8.568;2023-12-22T09:30:31;7.00;86.34
40059;SHT31;25763;49.972;8.568;2023-12-22T09:32:57;6.99;86.39
40059;SHT31;25763;49.972;8.568;2023-12-22T09:35:22;7.00;86.55
40059;SHT31;25763;49.972;8.568;2023-12-22T09:37:50;7.04;86.54
40059;SHT31;25763;49.972;8.568;2023-12-22T09:40:15;7.07;86.71
40059;SHT31;25763;49.972;8.568;2023-12-22T09:42:41;7.11;86.75
40059;SHT31;25763;49.972;8.568;2023-12-22T09:45:08;7.14;86.82
40059;SHT31;25763;49.972;8.568;2023-12-22T09:47:37;7.14;86.92
40059;SHT31;25763;49.972;8.568;2023-12-22T09:50:04;7.13;86.95
40059;SHT31;25763;49.972;8.568;2023-12-22T09:52:31;7.10;87.24
40059;SHT31;25763;49.972;8.568;2023-12-22T09:54:57;7.11;87.35
40059;SHT31;25763;49.972;8.568;2023-12-22T09:57:24;7.14;87.57
40059;SHT31;25763;49.972;8.568;2023-12-22T09:59:51;7.17;87.55
40059;SHT31;25763;49.972;8.568;2023-12-22T10:02:17;7.20;87.52
40059;SHT31;25763;49.972;8.568;2023-12-22T10:04:42;7.23;87.56
40059;SHT31;25763;49.972;8.568;2023-12-22T10:07:09;7.20;87.58
40059;SHT31;25763;49.972;8.568;2023-12-22T10:09:36;7.26;87.66
40059;SHT31;25763;49.972;8.568;2023-12-22T10:12:03;7.24;87.78
40059;SHT31;25763;49.972;8.568;2023-12-22T10:14:29;7.28;87.94
40059;SHT31;25763;49.972;8.568;2023-12-22T10:16:55;7.31;87.96
40059;SHT31;25763;49.972;8.568;2023-12-22T10:19:21;7.31;87.95
40059;SHT31;25763;49.972;8.568;2023-12-22T10:21:48;7.38;87.92
40059;SHT31;25763;49.972;8.568;2023-12-22T10:27:04;7.39;87.87
40059;SHT31;25763;49.972;8.568;2023-12-22T10:29:30;7.44;87.98
40059;SHT31;25763;49.972;8.568;2023-12-22T10:31:56;7.48;87.99
40059;SHT31;25763;49.972;8.568;2023-12-22T10:34:21;7.56;87.96
40059;SHT31;25763;49.972;8.568;2023-12-22T10:36:46;7.62;87.89
40059;SHT31;25763;49.972;8.568;2023-12-22T10:39:12;7.70;87.77
40059;SHT31;25763;49.972;8.568;2023-12-22T10:41:38;7.76;87.44
40059;SHT31;25763;49.972;8.568;2023-12-22T10:44:03;7.83;87.34
40059;SHT31;25763;49.972;8.568;2023-12-22T10:46:30;7.87;87.24
40059;SHT31;25763;49.972;8.568;2023-12-22T10:48:59;7.91;87.14
40059;SHT31;25763;49.972;8.568;2023-12-22T10:51:24;7.95;87.09
40059;SHT31;25763;49.972;8.568;2023-12-22T10:53:51;8.04;87.02
40059;SHT31;25763;49.972;8.568;2023-12-22T10:56:17;8.08;86.79
40059;SHT31;25763;49.972;8.568;2023-12-22T10:58:42;8.14;86.42
40059;SHT31;25763;49.972;8.568;2023-12-22T11:01:09;8.18;86.01
40059;SHT31;25763;49.972;8.568;2023-12-22T11:03:39;8.24;85.80
40059;SHT31;25763;49.972;8.568;2023-12-22T11:06:06;8.29;85.51
40059;SHT31;25763;49.972;8.568;2023-12-22T11:08:35;8.35;85.16
40059;SHT31;25763;49.972;8.568;2023-12-22T11:11:16;8.40;84.61
40059;SHT31;25763;49.972;8.568;2023-12-22T11:13:46;8.47;84.28
40059;SHT31;25763;49.972;8.568;2023-12-22T11:16:12;8.47;84.14
40059;SHT31;25763;49.972;8.568;2023-12-22T11:18:40;8.54;84.01
40059;SHT31;25763;49.972;8.568;2023-12-22T11:21:06;8.57;84.25
40059;SHT31;25763;49.972;8.568;2023-12-22T11:23:33;8.60;84.20
40059;SHT31;25763;49.972;8.568;2023-12-22T11:26:01;8.64;84.24
40059;SHT31;25763;49.972;8.568;2023-12-22T11:28:26;8.64;84.27
40059;SHT31;25763;49.972;8.568;2023-12-22T11:30:54;8.68;83.93
40059;SHT31;25763;49.972;8.568;2023-12-22T11:33:20;8.67;84.08
40059;SHT31;25763;49.972;8.568;2023-12-22T11:35:46;8.68;84.32
40059;SHT31;25763;49.972;8.568;2023-12-22T11:38:13;8.67;84.29
40059;SHT31;25763;49.972;8.568;2023-12-22T11:40:39;8.68;84.11
40059;SHT31;25763;49.972;8.568;2023-12-22T11:43:05;8.70;84.02
40059;SHT31;25763;49.972;8.568;2023-12-22T11:45:31;8.71;84.60
40059;SHT31;25763;49.972;8.568;2023-12-22T11:48:05;8.68;84.56
40059;SHT31;25763;49.972;8.568;2023-12-22T11:50:30;8.70;84.77
40059;SHT31;25763;49.972;8.568;2023-12-22T11:52:56;8.70;84.48
40059;SHT31;25763;49.972;8.568;2023-12-22T11:58:51;8.71;85.27
40059;SHT31;25763;49.972;8.568;2023-12-22T12:01:23;8.68;85.13
40059;SHT31;25763;49.972;8.568;2023-12-22T12:03:51;8.64;85.22
40059;SHT31;25763;49.972;8.568;2023-12-22T12:09:05;8.65;84.87
40059;SHT31;25763;49.972;8.568;2023-12-22T12:14:32;8.61;85.19
40059;SHT31;25763;49.972;8.568;2023-12-22T12:17:08;8.64;85.06
40059;SHT31;25763;49.972;8.568;2023-12-22T12:19:35;8.64;84.73
40059;SHT31;25763;49.972;8.568;2023-12-22T12:22:02;8.65;84.72
40059;SHT31;25763;49.972;8.568;2023-12-22T12:24:28;8.70;84.93
40059;SHT31;25763;49.972;8.568;2023-12-22T12:26:53;8.73;85.13
40059;SHT31;25763;49.972;8.568;2023-12-22T12:29:20;8.74;85.15
40059;SHT31;25763;49.972;8.568;2023-12-22T12:31:45;8.77;85.36
40059;SHT31;25763;49.972;8.568;2023-12-22T12:34:11;8.77;85.62
40059;SHT31;25763;49.972;8.568;2023-12-22T12:36:37;8.77;85.85
40059;SHT31;25763;49.972;8.568;2023-12-22T12:39:07;8.80;85.96
40059;SHT31;25763;49.972;8.568;2023-12-22T12:41:42;8.80;86.21
40059;SHT31;25763;49.972;8.568;2023-12-22T12:44:11;8.83;86.30
40059;SHT31;25763;49.972;8.568;2023-12-22T12:46:38;8.85;86.15
40059;SHT31;25763;49.972;8.568;2023-12-22T12:49:10;8.88;86.17
40059;SHT31;25763;49.972;8.568;2023-12-22T12:51:40;8.91;86.18
40059;SHT31;25763;49.972;8.568;2023-12-22T12:54:07;8.98;86.16
40059;SHT31;25763;49.972;8.568;2023-12-22T12:56:43;8.99;86.14
40059;SHT31;25763;49.972;8.568;2023-12-22T12:59:13;9.02;86.13
40059;SHT31;25763;49.972;8.568;2023-12-22T13:01:43;9.06;86.28
40059;SHT31;25763;49.972;8.568;2023-12-22T13:04:09;9.08;86.26
40059;SHT31;25763;49.972;8.568;2023-12-22T13:06:42;9.12;86.10
40059;SHT31;25763;49.972;8.568;2023-12-22T13:09:07;9.16;85.78
40059;SHT31;25763;49.972;8.568;2023-12-22T13:11:34;9.23;85.61
40059;SHT31;25763;49.972;8.568;2023-12-22T13:14:01;9.26;85.30
40059;SHT31;25763;49.972;8.568;2023-12-22T13:16:27;9.30;85.22
40059;SHT31;25763;49.972;8.568;2023-12-22T13:18:56;9.37;84.95
40059;SHT31;25763;49.972;8.568;2023-12-22T13:21:23;9.37;84.75
40059;SHT31;25763;49.972;8.568;2023-12-22T13:24:10;9.41;84.96
40059;SHT31;25763;49.972;8.568;2023-12-22T13:26:36;9.41;84.79
40059;SHT31;25763;49.972;8.568;2023-12-22T13:29:02;9.43;85.03
40059;SHT31;25763;49.972;8.568;2023-12-22T13:31:27;9.41;85.22
40059;SHT31;25763;49.972;8.568;2023-12-22T13:33:54;9.41;85.30
40059;SHT31;25763;49.972;8.568;2023-12-22T13:36:20;9.43;85.31
40059;SHT31;25763;49.972;8.568;2023-12-22T13:38:49;9.44;85.59
40059;SHT31;25763;49.972;8.568;2023-12-22T13:41:17;9.50;84.90
40059;SHT31;25763;49.972;8.568;2023-12-22T13:43:43;9.50;85.15
40059;SHT31;25763;49.972;8.568;2023-12-22T13:46:13;9.55;85.04
40059;SHT31;25763;49.972;8.568;2023-12-22T13:48:39;9.55;85.04
40059;SHT31;25763;49.972;8.568;2023-12-22T13:51:05;9.61;84.84
40059;SHT31;25763;49.972;8.568;2023-12-22T13:53:30;9.64;84.41
40059;SHT31;25763;49.972;8.568;2023-12-22T13:55:57;9.68;84.22
40059;SHT31;25763;49.972;8.568;2023-12-22T13:58:23;9.68;83.87
40059;SHT31;25763;49.972;8.568;2023-12-22T14:00:49;9.77;83.09
40059;SHT31;25763;49.972;8.568;2023-12-22T14:03:14;9.83;83.06
40059;SHT31;25763;49.972;8.568;2023-12-22T14:05:43;9.85;82.88
40059;SHT31;25763;49.972;8.568;2023-12-22T14:08:09;9.85;82.84
40059;SHT31;25763;49.972;8.568;2023-12-22T14:10:34;9.85;82.75
40059;SHT31;25763;49.972;8.568;2023-12-22T14:13:00;9.86;82.52
40059;SHT31;25763;49.972;8.568;2023-12-22T14:15:25;9.83;82.59
40059;SHT31;25763;49.972;8.568;2023-12-22T14:17:54;9.88;82.34
40059;SHT31;25763;49.972;8.568;2023-12-22T14:20:19;9.99;81.61
40059;SHT31;25763;49.972;8.568;2023-12-22T14:22:45;9.98;81.80
40059;SHT31;25763;49.972;8.568;2023-12-22T14:25:10;10.00;81.70
40059;SHT31;25763;49.972;8.568;2023-12-22T14:27:35;10.00;81.65
40059;SHT31;25763;49.972;8.568;2023-12-22T14:30:01;10.06;81.37
40059;SHT31;25763;49.972;8.568;2023-12-22T14:32:26;10.02;81.55
40059;SHT31;25763;49.972;8.568;2023-12-22T14:34:52;10.10;80.90
40059;SHT31;25763;49.972;8.568;2023-12-22T14:37:17;10.09;80.78
40059;SHT31;25763;49.972;8.568;2023-12-22T14:39:43;10.13;80.56
40059;SHT31;25763;49.972;8.568;2023-12-22T14:42:09;10.13;80.66
40059;SHT31;25763;49.972;8.568;2023-12-22T14:44:34;10.14;80.47
40059;SHT31;25763;49.972;8.568;2023-12-22T14:47:00;10.17;80.47
40059;SHT31;25763;49.972;8.568;2023-12-22T14:49:25;10.17;80.67
40059;SHT31;25763;49.972;8.568;2023-12-22T14:51:51;10.14;80.59
40059;SHT31;25763;49.972;8.568;2023-12-22T14:54:18;10.17;80.24
40059;SHT31;25763;49.972;8.568;2023-12-22T14:56:44;10.24;79.97
40059;SHT31;25763;49.972;8.568;2023-12-22T14:59:10;10.26;79.64
40059;SHT31;25763;49.972;8.568;2023-12-22T15:01:36;10.27;79.47
40059;SHT31;25763;49.972;8.568;2023-12-22T15:04:01;10.30;79.62
40059;SHT31;25763;49.972;8.568;2023-12-22T15:06:28;10.28;79.65
40059;SHT31;25763;49.972;8.568;2023-12-22T15:08:54;10.27;79.92
40059;SHT31;25763;49.972;8.568;2023-12-22T15:11:19;10.28;79.85
40059;SHT31;25763;49.972;8.568;2023-12-22T15:13:45;10.30;79.90
40059;SHT31;25763;49.972;8.568;2023-12-22T15:16:10;10.31;79.98
40059;SHT31;25763;49.972;8.568;2023-12-22T15:18:35;10.28;80.03
40059;SHT31;25763;49.972;8.568;2023-12-22T15:21:01;10.27;80.12
40059;SHT31;25763;49.972;8.568;2023-12-22T15:23:26;10.28;80.12
40059;SHT31;25763;49.972;8.568;2023-12-22T15:25:51;10.28;80.18
40059;SHT31;25763;49.972;8.568;2023-12-22T15:28:17;10.30;80.09
40059;SHT31;25763;49.972;8.568;2023-12-22T15:30:43;10.30;79.75
40059;SHT31;25763;49.972;8.568;2023-12-22T15:33:08;10.31;79.62
40059;SHT31;25763;49.972;8.568;2023-12-22T15:35:34;10.34;79.09
40059;SHT31;25763;49.972;8.568;2023-12-22T15:37:59;10.42;78.26
40059;SHT31;25763;49.972;8.568;2023-12-22T15:40:24;10.41;78.35
40059;SHT31;25763;49.972;8.568;2023-12-22T15:42:50;10.41;78.65
40059;SHT31;25763;49.972;8.568;2023-12-22T15:45:16;10.40;78.20
40059;SHT31;25763;49.972;8.568;2023-12-22T15:47:41;10.46;78.17
40059;SHT31;25763;49.972;8.568;2023-12-22T15:50:07;10.45;77.92
40059;SHT31;25763;49.972;8.568;2023-12-22T15:52:34;10.52;77.48